createdAt,value
2022-11-19T00:02:07.000Z,101407.63
2022-11-19T00:04:36.516Z,101388.34
2022-11-19T00:07:08.638Z,101409.19
2022-11-19T00:09:36.937Z,101403.94
2022-11-19T00:12:25.494Z,101405.94
2022-11-19T00:14:55.539Z,101407.63
2022-11-19T00:17:23.588Z,101369.84
2022-11-19T00:19:53.006Z,101403.94
2022-11-19T00:22:21.107Z,101399.94
2022-11-19T00:24:49.144Z,101400.56
2022-11-19T00:27:18.880Z,101404.19
2022-11-19T00:29:47.582Z,101410.19
2022-11-19T00:32:16.991Z,101403.94
2022-11-19T00:34:45.011Z,101411.06
2022-11-19T00:37:14.441Z,101406.88
2022-11-19T00:39:42.593Z,101412.75
2022-11-19T00:42:10.639Z,101408.38
2022-11-19T00:44:38.629Z,101414.69
2022-11-19T00:47:08.519Z,101409.06
2022-11-19T00:49:36.604Z,101418.13
2022-11-19T00:52:04.922Z,101413.00
2022-11-19T00:54:34.542Z,101405.94
2022-11-19T00:57:02.538Z,101411.06
2022-11-19T00:59:30.568Z,101410.94
2022-11-19T01:01:58.650Z,101410.06
2022-11-19T01:04:26.939Z,101406.50
2022-11-19T01:06:55.510Z,101409.06
2022-11-19T01:09:24.864Z,101398.59
2022-11-19T01:11:54.472Z,101409.06
2022-11-19T01:14:22.555Z,101395.19
2022-11-19T01:16:50.596Z,101409.94
2022-11-19T01:19:18.867Z,101407.38
2022-11-19T01:21:47.138Z,101391.53
2022-11-19T01:24:15.544Z,101392.38
2022-11-19T01:26:45.980Z,101399.31
2022-11-19T01:29:15.867Z,101398.34
2022-11-19T01:31:44.436Z,101387.84
2022-11-19T01:34:12.601Z,101381.66
2022-11-19T01:36:41.455Z,101392.13
2022-11-19T01:39:09.484Z,101382.25
2022-11-19T01:41:37.523Z,101374.56
2022-11-19T01:44:07.940Z,101374.19
2022-11-19T01:46:40.041Z,101361.28
2022-11-19T01:49:13.771Z,101374.19
2022-11-19T01:51:45.183Z,101368.69
2022-11-19T01:54:22.032Z,101368.13
2022-11-19T01:56:50.880Z,101366.16
2022-11-19T01:59:20.912Z,101362.50
2022-11-19T02:01:50.687Z,101362.50
2022-11-19T02:04:20.456Z,101367.88
2022-11-19T02:06:49.165Z,101366.41
2022-11-19T02:09:19.105Z,101363.47
2022-11-19T02:12:15.299Z,101366.16
2022-11-19T02:14:57.901Z,101375.19
2022-11-19T02:17:44.611Z,101376.88
2022-11-19T02:20:36.781Z,101369.81
2022-11-19T02:23:33.303Z,101361.75
2022-11-19T02:26:21.058Z,101320.72
2022-11-19T02:28:53.831Z,101357.38
2022-11-19T02:31:30.327Z,101362.75
2022-11-19T02:34:02.950Z,101361.75
2022-11-19T02:36:38.995Z,101359.09
2022-11-19T02:39:14.445Z,101351.03
2022-11-19T02:41:50.489Z,101366.16
2022-11-19T02:44:41.048Z,101360.78
2022-11-19T02:47:14.017Z,101316.22
2022-11-19T02:49:45.798Z,101355.66
2022-11-19T02:52:16.438Z,101348.34
2022-11-19T02:54:44.648Z,101337.63
2022-11-19T02:57:14.414Z,101334.19
2022-11-19T03:00:05.629Z,101342.97
2022-11-19T03:02:57.977Z,101344.69
2022-11-19T03:05:31.996Z,101343.97
2022-11-19T03:08:00.415Z,101344.94
2022-11-19T03:10:37.198Z,101339.56
2022-11-19T03:13:27.344Z,101320.34
2022-11-19T03:16:20.293Z,101334.19
2022-11-19T03:18:56.611Z,101327.13
2022-11-19T03:21:34.153Z,101331.63
2022-11-19T03:24:06.622Z,101321.78
2022-11-19T03:26:40.243Z,101324.31
2022-11-19T03:29:12.542Z,101316.16
2022-11-19T03:31:44.490Z,101314.72
2022-11-19T03:34:20.243Z,101319.81
2022-11-19T03:36:52.110Z,101316.16
2022-11-19T03:39:22.606Z,101318.97
2022-11-19T03:41:54.304Z,101317.13
2022-11-19T03:44:28.467Z,101315.41
2022-11-19T03:47:01.167Z,101309.34
2022-11-19T03:49:38.536Z,101316.16
2022-11-19T03:52:11.554Z,101304.69
2022-11-19T03:54:41.470Z,101305.41
2022-11-19T03:57:12.105Z,101296.88
2022-11-19T03:59:40.261Z,101303.72
2022-11-19T04:02:10.752Z,101307.63
2022-11-19T04:04:40.351Z,101295.19
2022-11-19T04:07:11.098Z,101303.84
2022-11-19T04:09:39.910Z,101307.38
2022-11-19T04:12:09.641Z,101307.38
2022-11-19T04:14:38.675Z,101300.31
2022-11-19T04:17:07.340Z,101307.38
2022-11-19T04:19:35.456Z,101302.00
2022-11-19T04:22:06.289Z,101299.31
2022-11-19T04:24:34.485Z,101251.25
2022-11-19T04:27:02.976Z,101301.75
2022-11-19T04:29:31.059Z,101303.59
2022-11-19T04:31:59.402Z,101294.94
2022-11-19T04:34:29.211Z,101300.06
2022-11-19T04:36:57.332Z,101285.91
2022-11-19T04:39:28.034Z,101283.97
2022-11-19T04:41:56.235Z,101285.66
2022-11-19T04:44:24.356Z,101278.59
2022-11-19T04:46:52.418Z,101271.66
2022-11-19T04:49:20.706Z,101266.88
2022-11-19T04:51:48.874Z,101263.34
2022-11-19T04:54:16.984Z,101271.41
2022-11-19T04:56:48.689Z,101268.72
2022-11-19T04:59:18.421Z,101258.00
2022-11-19T05:01:46.988Z,101252.41
2022-11-19T05:04:15.304Z,101257.13
2022-11-19T05:06:43.637Z,101253.72
2022-11-19T05:09:11.988Z,101262.75
2022-11-19T05:11:40.413Z,101256.50
2022-11-19T05:14:10.138Z,101252.63
2022-11-19T05:16:39.367Z,101257.13
2022-11-19T05:19:09.512Z,101257.84
2022-11-19T05:21:37.583Z,101251.03
2022-11-19T05:24:08.039Z,101257.13
2022-11-19T05:26:36.702Z,101246.41
2022-11-19T05:29:04.839Z,101248.34
2022-11-19T05:31:35.317Z,101253.44
2022-11-19T05:34:03.414Z,101248.94
2022-11-19T05:36:31.491Z,101235.66
2022-11-19T05:38:59.589Z,101246.13
2022-11-19T05:41:29.918Z,101244.44
2022-11-19T05:43:59.646Z,101244.44
2022-11-19T05:46:29.205Z,101261.50
2022-11-19T05:48:58.676Z,101255.19
2022-11-19T05:51:26.720Z,101249.81
2022-11-19T05:53:54.811Z,101202.09
2022-11-19T05:56:22.931Z,101251.50
2022-11-19T05:58:50.900Z,101247.81
2022-11-19T06:01:26.303Z,101253.19
2022-11-19T06:03:54.686Z,101254.19
2022-11-19T06:06:25.676Z,101256.88
2022-11-19T06:08:54.992Z,101260.53
2022-11-19T06:11:40.614Z,101255.19
2022-11-19T06:14:09.072Z,101249.94
2022-11-19T06:16:37.274Z,101246.41
2022-11-19T06:19:05.293Z,101257.13
2022-11-19T06:21:35.004Z,101242.72
2022-11-19T06:24:03.079Z,101237.34
2022-11-19T06:26:31.429Z,101248.09
2022-11-19T06:28:59.647Z,101244.44
2022-11-19T06:31:27.989Z,101233.72
2022-11-19T06:33:56.227Z,101239.91
2022-11-19T06:36:27.506Z,101237.34
2022-11-19T06:38:57.353Z,101231.16
2022-11-19T06:41:25.701Z,101228.34
2022-11-19T06:43:54.095Z,101229.19
2022-11-19T06:46:22.300Z,101230.03
2022-11-19T06:48:50.942Z,101226.63
2022-11-19T06:51:18.990Z,101232.84
2022-11-19T06:53:47.032Z,101233.72
2022-11-19T06:56:16.502Z,101232.72
2022-11-19T06:58:44.519Z,101234.53
2022-11-19T07:01:14.476Z,101240.78
2022-11-19T07:03:42.829Z,101236.41
2022-11-19T07:06:10.924Z,101244.44
2022-11-19T07:08:39.528Z,101246.13
2022-11-19T07:11:21.680Z,101241.03
2022-11-19T07:14:00.607Z,101240.28
2022-11-19T07:16:31.124Z,101232.00
2022-11-19T07:19:00.146Z,101248.09
2022-11-19T07:21:29.783Z,101252.63
2022-11-19T07:23:58.304Z,101246.41
2022-11-19T07:26:27.309Z,101232.97
2022-11-19T07:29:00.505Z,101238.34
2022-11-19T07:31:31.950Z,101226.19
2022-11-19T07:34:00.206Z,101226.19
2022-11-19T07:36:28.288Z,101237.34
2022-11-19T07:38:56.346Z,101230.28
2022-11-19T07:41:42.078Z,101230.28
2022-11-19T07:44:14.115Z,101224.94
2022-11-19T07:46:43.474Z,101220.56
2022-11-19T07:49:11.511Z,101221.25
2022-11-19T07:51:39.547Z,101224.94
2022-11-19T07:54:09.350Z,101221.25
2022-11-19T07:56:37.401Z,101215.88
2022-11-19T07:59:05.648Z,101221.25
2022-11-19T08:01:35.627Z,101214.44
2022-11-19T08:04:05.401Z,101213.59
2022-11-19T08:06:34.824Z,101216.16
2022-11-19T08:09:04.039Z,101208.84
2022-11-19T08:11:32.793Z,101192.72
2022-11-19T08:14:02.243Z,101174.84
2022-11-19T08:16:47.876Z,101203.47
2022-11-19T08:19:18.867Z,101191.03
2022-11-19T08:21:48.515Z,101199.78
2022-11-19T08:24:19.679Z,101201.66
2022-11-19T08:26:49.084Z,101179.09
2022-11-19T08:29:20.159Z,101187.38
2022-11-19T08:31:49.299Z,101188.22
2022-11-19T08:34:20.719Z,101198.97
2022-11-19T08:36:48.982Z,101203.47
2022-11-19T08:39:17.117Z,101207.00
2022-11-19T08:42:02.774Z,101199.78
2022-11-19T08:44:31.042Z,101189.31
2022-11-19T08:46:59.076Z,101196.16
2022-11-19T08:49:28.897Z,101184.56
2022-11-19T08:51:57.641Z,101183.94
2022-11-19T08:54:26.366Z,101189.06
2022-11-19T08:56:54.467Z,101183.69
2022-11-19T08:59:22.674Z,101171.53
2022-11-19T09:01:51.125Z,101167.84
2022-11-19T09:04:19.392Z,101154.00
2022-11-19T09:06:49.138Z,101161.53
2022-11-19T09:09:17.082Z,101155.16
2022-11-19T09:11:45.024Z,101160.53
2022-11-19T09:14:12.991Z,101152.63
2022-11-19T09:16:40.952Z,101155.44
2022-11-19T09:19:08.946Z,101145.56
2022-11-19T09:21:37.571Z,101150.66
2022-11-19T09:24:07.811Z,101152.50
2022-11-19T09:26:36.495Z,101159.41
2022-11-19T09:29:04.426Z,101153.22
2022-11-19T09:31:32.334Z,101165.66
2022-11-19T09:34:00.430Z,101153.91
2022-11-19T09:36:28.383Z,101160.28
2022-11-19T09:38:59.225Z,101143.31
2022-11-19T09:41:44.800Z,101156.59
2022-11-19T09:44:33.249Z,101160.28
2022-11-19T09:47:13.972Z,101160.28
2022-11-19T09:49:48.427Z,101158.47
2022-11-19T09:52:19.688Z,101156.59
2022-11-19T09:54:50.819Z,101144.97
2022-11-19T09:57:30.969Z,101160.28
2022-11-19T10:00:01.656Z,101155.03
2022-11-19T10:02:30.763Z,101156.59
2022-11-19T10:05:00.975Z,101160.28
2022-11-19T10:07:39.674Z,101166.63
2022-11-19T10:10:25.255Z,101163.94
2022-11-19T10:13:12.815Z,101153.22
2022-11-19T10:15:52.784Z,101163.94
2022-11-19T10:18:30.796Z,101153.22
2022-11-19T10:21:07.215Z,101146.13
2022-11-19T10:23:52.942Z,101148.13
2022-11-19T10:26:31.915Z,101153.22
2022-11-19T10:29:03.321Z,101146.13
2022-11-19T10:31:36.439Z,101147.00
2022-11-19T10:34:12.050Z,101158.59
2022-11-19T10:36:43.859Z,101107.03
2022-11-19T10:39:21.929Z,101133.25
2022-11-19T10:41:55.801Z,101142.50
2022-11-19T10:44:40.230Z,101135.41
2022-11-19T10:47:12.022Z,101122.97
2022-11-19T10:49:42.249Z,101130.03
2022-11-19T10:52:25.862Z,101137.13
2022-11-19T10:55:02.013Z,101131.75
2022-11-19T10:57:34.116Z,101126.38
2022-11-19T11:00:03.918Z,101126.38
2022-11-19T11:02:42.535Z,101106.28
2022-11-19T11:05:13.937Z,101113.94
2022-11-19T11:07:53.854Z,101113.94
2022-11-19T11:10:35.023Z,101108.56
2022-11-19T11:13:35.420Z,101100.78
2022-11-19T11:16:11.342Z,101108.69
2022-11-19T11:18:40.880Z,101104.19
2022-11-19T11:21:13.766Z,101103.22
2022-11-19T11:23:51.569Z,101101.78
2022-11-19T11:26:23.037Z,101103.47
2022-11-19T11:29:00.671Z,101098.84
2022-11-19T11:31:38.996Z,101089.91
2022-11-19T11:34:08.785Z,101081.75
2022-11-19T11:36:38.376Z,101086.28
2022-11-19T11:39:07.326Z,101088.84
2022-11-19T11:42:05.420Z,101077.25
2022-11-19T11:44:29.210Z,101080.31
2022-11-19T11:47:01.743Z,101080.56
2022-11-19T11:49:35.037Z,101078.09
2022-11-19T11:52:14.554Z,101069.31
2022-11-19T11:54:56.436Z,101072.72
2022-11-19T11:57:26.374Z,101059.13
2022-11-19T11:59:54.827Z,101079.06
2022-11-19T12:02:30.414Z,101072.72
2022-11-19T12:05:01.600Z,101043.09
2022-11-19T12:07:48.109Z,101060.81
2022-11-19T12:10:26.675Z,101055.91
2022-11-19T12:13:11.082Z,101018.38
2022-11-19T12:15:48.227Z,101049.53
2022-11-19T12:18:29.590Z,101052.09
2022-11-19T12:21:11.445Z,101036.25
2022-11-19T12:23:59.873Z,101049.28
2022-11-19T12:26:37.431Z,101032.03
2022-11-19T12:29:16.266Z,101047.84
2022-11-19T12:32:00.896Z,101044.19
2022-11-19T12:34:52.658Z,101049.53
2022-11-19T12:37:39.877Z,101034.31
2022-11-19T12:40:21.603Z,101055.78
2022-11-19T12:42:57.760Z,101044.19
2022-11-19T12:45:36.840Z,101044.19
2022-11-19T12:48:32.751Z,101040.06
2022-11-19T12:51:13.181Z,101035.44
2022-11-19T12:53:58.275Z,101043.75
2022-11-19T12:56:37.892Z,101040.94
2022-11-19T12:59:21.988Z,101033.72
2022-11-19T13:01:54.165Z,101037.41
2022-11-19T13:04:27.683Z,101033.72
2022-11-19T13:07:01.402Z,101030.06
2022-11-19T13:09:38.740Z,101012.78
2022-11-19T13:12:10.642Z,101031.16
2022-11-19T13:14:42.381Z,101021.03
2022-11-19T13:17:19.248Z,101012.00
2022-11-19T13:19:52.549Z,101016.53
2022-11-19T13:22:27.268Z,101021.88
2022-11-19T13:25:00.222Z,101022.97
2022-11-19T13:27:31.297Z,101015.66
2022-11-19T13:30:02.955Z,101013.84
2022-11-19T13:32:36.316Z,101005.78
2022-11-19T13:35:14.911Z,101008.47
2022-11-19T13:37:58.020Z,101008.34
2022-11-19T13:40:32.001Z,100996.75
2022-11-19T13:43:31.658Z,100995.88
2022-11-19T13:46:10.185Z,101005.78
2022-11-19T13:48:41.568Z,100989.38
2022-11-19T13:51:22.001Z,100999.56
2022-11-19T13:53:51.641Z,101000.69
2022-11-19T13:56:21.695Z,100999.56
2022-11-19T13:58:52.619Z,100999.56
2022-11-19T14:01:48.551Z,101004.06
2022-11-19T14:04:33.804Z,101004.94
2022-11-19T14:07:31.236Z,101003.25
2022-11-19T14:10:09.229Z,101004.19
2022-11-19T14:12:52.672Z,101018.47
2022-11-19T14:16:09.157Z,101010.31
2022-11-19T14:18:58.266Z,101019.34
2022-11-19T14:22:06.276Z,101017.63
2022-11-19T14:25:28.036Z,101026.66
2022-11-19T14:27:55.944Z,101014.25
2022-11-19T14:31:02.610Z,101024.97
2022-11-19T14:33:58.838Z,101019.59
2022-11-19T14:36:39.339Z,101001.22
2022-11-19T14:39:18.016Z,100967.81
2022-11-19T14:41:48.072Z,101000.97
2022-11-19T14:44:36.048Z,100950.28
2022-11-19T14:47:33.579Z,100999.84
2022-11-19T14:50:04.198Z,100994.47
2022-11-19T14:52:35.426Z,100994.19
2022-11-19T14:55:07.155Z,100991.66
2022-11-19T14:57:39.830Z,100995.63
2022-11-19T15:00:28.804Z,101003.53
2022-11-19T15:02:58.103Z,100999.88
2022-11-19T15:05:33.272Z,100991.97
2022-11-19T15:08:30.505Z,100988.03
2022-11-19T15:11:07.794Z,100984.34
2022-11-19T15:13:39.310Z,100970.25
2022-11-19T15:16:11.194Z,100978.72
2022-11-19T15:19:13.858Z,100953.84
2022-11-19T15:22:01.351Z,100964.31
2022-11-19T15:24:41.603Z,100942.84
2022-11-19T15:27:21.479Z,100905.75
2022-11-19T15:30:08.132Z,100938.31
2022-11-19T15:33:04.156Z,100932.09
2022-11-19T15:35:52.439Z,100935.78
2022-11-19T15:38:31.138Z,100924.91
2022-11-19T15:41:02.615Z,100930.69
2022-11-19T15:43:36.103Z,100932.69
2022-11-19T15:46:09.957Z,100940.59
2022-11-19T15:48:43.827Z,100932.69
2022-11-19T15:51:14.908Z,100932.94
2022-11-19T15:53:58.879Z,100936.31
2022-11-19T15:56:28.633Z,100934.63
2022-11-19T15:58:57.294Z,100848.31
2022-11-19T16:01:26.920Z,100925.59
2022-11-19T16:03:55.493Z,100923.91
2022-11-19T16:06:26.339Z,100926.44
2022-11-19T16:08:56.107Z,100910.63
2022-11-19T16:11:43.940Z,100926.44
2022-11-19T16:14:54.182Z,100920.22
2022-11-19T16:17:41.726Z,100906.13
2022-11-19T16:20:21.918Z,100906.41
2022-11-19T16:22:57.585Z,100886.31
2022-11-19T16:25:31.405Z,100880.13
2022-11-19T16:28:02.553Z,100888.56
2022-11-19T16:30:38.767Z,100881.53
2022-11-19T16:33:13.375Z,100892.25
2022-11-19T16:35:41.325Z,100878.97
2022-11-19T16:38:15.740Z,100883.47
2022-11-19T16:41:02.848Z,100890.56
2022-11-19T16:43:31.163Z,100890.56
2022-11-19T16:45:59.733Z,100899.31
2022-11-19T16:48:57.146Z,100899.59
2022-11-19T16:51:52.258Z,100914.84
2022-11-19T16:54:45.593Z,100905.81
2022-11-19T16:57:16.474Z,100910.19
2022-11-19T16:59:48.452Z,100903.00
2022-11-19T17:02:18.979Z,100905.66
2022-11-19T17:04:49.358Z,100897.63
2022-11-19T17:07:25.748Z,100903.84
2022-11-19T17:10:10.523Z,100899.31
2022-11-19T17:12:39.339Z,100884.84
2022-11-19T17:15:37.248Z,100906.41
2022-11-19T17:18:15.959Z,100909.22
2022-11-19T17:20:51.752Z,100913.72
2022-11-19T17:23:23.145Z,100904.66
2022-11-19T17:25:53.896Z,100904.66
2022-11-19T17:28:26.682Z,100903.84
2022-11-19T17:30:56.444Z,100904.66
2022-11-19T17:33:25.080Z,100882.31
2022-11-19T17:35:53.207Z,100912.72
2022-11-19T17:38:25.086Z,100917.13
2022-11-19T17:40:56.557Z,100920.78
2022-11-19T17:43:44.440Z,100920.78
2022-11-19T17:46:12.422Z,100922.50
2022-11-19T17:48:42.529Z,100926.13
2022-11-19T17:51:12.803Z,100924.44
2022-11-19T17:53:42.800Z,100923.31
2022-11-19T17:56:18.022Z,100908.06
2022-11-19T17:58:45.999Z,100922.22
2022-11-19T18:01:14.572Z,100917.13
2022-11-19T18:03:42.612Z,100915.13
2022-11-19T18:06:13.099Z,100923.91
2022-11-19T18:08:43.019Z,100922.22
2022-11-19T18:11:13.282Z,100927.59
2022-11-19T18:13:42.441Z,100938.31
2022-11-19T18:16:15.015Z,100917.81
2022-11-19T18:18:43.278Z,100922.50
2022-11-19T18:21:13.028Z,100913.44
2022-11-19T18:23:42.909Z,100924.44
2022-11-19T18:26:11.763Z,100911.75
2022-11-19T18:28:41.625Z,100923.31
2022-11-19T18:31:16.474Z,100927.84
2022-11-19T18:33:45.403Z,100927.84
2022-11-19T18:36:13.367Z,100917.13
2022-11-19T18:38:42.727Z,100926.13
2022-11-19T18:41:13.121Z,100917.13
2022-11-19T18:43:58.800Z,100931.38
2022-11-19T18:46:27.258Z,100917.13
2022-11-19T18:48:55.217Z,100924.31
2022-11-19T18:51:24.746Z,100881.47
2022-11-19T18:53:54.034Z,100922.50
2022-11-19T18:56:21.911Z,100915.41
2022-11-19T18:58:50.025Z,100927.84
2022-11-19T19:01:18.134Z,100934.91
2022-11-19T19:03:46.175Z,100926.13
2022-11-19T19:06:14.131Z,100923.44
2022-11-19T19:08:42.042Z,100915.41
2022-11-19T19:11:29.799Z,100914.56
2022-11-19T19:13:57.778Z,100910.03
2022-11-19T19:16:26.223Z,100910.03
2022-11-19T19:18:54.148Z,100903.00
2022-11-19T19:21:23.603Z,100901.03
2022-11-19T19:23:51.804Z,100901.03
2022-11-19T19:26:21.784Z,100869.03
2022-11-19T19:28:51.552Z,100910.03
2022-11-19T19:31:19.532Z,100910.03
2022-11-19T19:33:48.004Z,100904.94
2022-11-19T19:36:17.051Z,100916.41
2022-11-19T19:38:45.145Z,100910.03
2022-11-19T19:41:15.849Z,100919.09
2022-11-19T19:43:45.256Z,100912.72
2022-11-19T19:46:16.233Z,100900.16
2022-11-19T19:48:44.450Z,100901.31
2022-11-19T19:51:13.490Z,100916.25
2022-11-19T19:53:42.084Z,100914.44
2022-11-19T19:56:13.284Z,100911.75
2022-11-19T19:58:43.637Z,100908.91
2022-11-19T20:01:15.109Z,100923.44
2022-11-19T20:03:43.525Z,100924.44
2022-11-19T20:06:13.546Z,100925.31
2022-11-19T20:08:42.426Z,100936.88
2022-11-19T20:11:12.258Z,100924.59
2022-11-19T20:13:40.898Z,100924.44
2022-11-19T20:16:17.303Z,100906.91
2022-11-19T20:18:48.883Z,100935.03
2022-11-19T20:21:19.170Z,100946.09
2022-11-19T20:23:47.588Z,100938.84
2022-11-19T20:26:17.448Z,100936.03
2022-11-19T20:28:45.454Z,100957.91
2022-11-19T20:31:15.828Z,100951.00
2022-11-19T20:33:45.163Z,100954.69
2022-11-19T20:36:16.787Z,100952.97
2022-11-19T20:38:46.181Z,100958.34
2022-11-19T20:41:29.690Z,100967.38
2022-11-19T20:44:15.455Z,100962.00
2022-11-19T20:46:44.042Z,100967.38
2022-11-19T20:49:16.948Z,100972.75
2022-11-19T20:51:47.470Z,100969.34
2022-11-19T20:54:15.738Z,100983.47
2022-11-19T20:56:43.913Z,100980.78
2022-11-19T20:59:13.592Z,100978.09
2022-11-19T21:01:42.721Z,100975.41
2022-11-19T21:04:12.199Z,100974.69
2022-11-19T21:06:40.758Z,100974.69
2022-11-19T21:09:10.499Z,100977.38
2022-11-19T21:11:38.540Z,100973.00
2022-11-19T21:14:06.441Z,100974.97
2022-11-19T21:16:34.410Z,100974.69
2022-11-19T21:19:02.502Z,100968.63
2022-11-19T21:21:30.492Z,100971.31
2022-11-19T21:23:58.391Z,100971.59
2022-11-19T21:26:29.210Z,100968.78
2022-11-19T21:28:58.707Z,100968.63
2022-11-19T21:31:38.317Z,100972.16
2022-11-19T21:34:07.713Z,100971.31
2022-11-19T21:36:36.006Z,100973.00
2022-11-19T21:39:04.239Z,100967.66
2022-11-19T21:41:34.048Z,100965.94
2022-11-19T21:44:02.628Z,100943.97
2022-11-19T21:46:30.636Z,100969.34
2022-11-19T21:48:58.776Z,100972.16
2022-11-19T21:51:26.738Z,100969.34
2022-11-19T21:53:56.114Z,100963.97
2022-11-19T21:56:24.336Z,100962.28
2022-11-19T21:58:53.637Z,100958.59
2022-11-19T22:01:21.899Z,100962.28
2022-11-19T22:03:49.862Z,100953.50
2022-11-19T22:06:17.802Z,100962.28
2022-11-19T22:08:45.769Z,100956.06
2022-11-19T22:11:32.526Z,100960.59
2022-11-19T22:14:03.821Z,100960.59
2022-11-19T22:16:34.248Z,100962.28
2022-11-19T22:19:02.722Z,100950.41
2022-11-19T22:21:31.940Z,100958.59
2022-11-19T22:24:00.032Z,100946.19
2022-11-19T22:26:28.152Z,100948.88
2022-11-19T22:28:56.339Z,100941.09
2022-11-19T22:31:26.718Z,100939.25
2022-11-19T22:33:55.500Z,100944.50
2022-11-19T22:36:24.688Z,100939.13
2022-11-19T22:38:53.522Z,100942.78
2022-11-19T22:41:22.470Z,100933.75
2022-11-19T22:43:50.936Z,100939.13
2022-11-19T22:46:19.822Z,100944.50
2022-11-19T22:48:49.320Z,100941.81
2022-11-19T22:51:20.148Z,100948.13
2022-11-19T22:53:48.308Z,100944.50
2022-11-19T22:56:18.175Z,100944.50
2022-11-19T22:58:46.734Z,100944.50
2022-11-19T23:01:17.702Z,100955.22
2022-11-19T23:03:46.014Z,100950.81
2022-11-19T23:06:16.003Z,100953.50
2022-11-19T23:08:44.391Z,100958.88
2022-11-19T23:11:13.425Z,100964.22
2022-11-19T23:13:41.867Z,100974.13
2022-11-19T23:16:12.566Z,100969.59
2022-11-19T23:18:42.810Z,100976.97
2022-11-19T23:21:12.640Z,100975.97
2022-11-19T23:23:42.016Z,100968.91
2022-11-19T23:26:13.822Z,100977.66
2022-11-19T23:28:44.800Z,100969.59
2022-11-19T23:31:16.988Z,100963.09
2022-11-19T23:33:45.827Z,100964.22
2022-11-19T23:36:15.620Z,100974.97
2022-11-19T23:38:45.339Z,100977.66
2022-11-19T23:41:15.331Z,100957.19
2022-11-19T23:43:43.610Z,100965.22
2022-11-19T23:46:13.630Z,100965.94
2022-11-19T23:48:43.385Z,100965.94
2022-11-19T23:51:13.686Z,100965.94
2022-11-19T23:53:41.987Z,100967.91
2022-11-19T23:56:12.342Z,100969.59
2022-11-19T23:58:40.478Z,100951.50
